createdAt,value
2022-09-15T00:00:35.906Z,15.27
2022-09-15T00:03:02.356Z,15.27
2022-09-15T00:05:28.776Z,15.18
2022-09-15T00:07:55.129Z,15.08
2022-09-15T00:10:21.609Z,15.17
2022-09-15T00:12:48.342Z,15.21
2022-09-15T00:15:16.840Z,15.20
2022-09-15T00:17:49.601Z,15.22
2022-09-15T00:20:20.485Z,15.21
2022-09-15T00:22:47.987Z,15.10
2022-09-15T00:25:15.224Z,15.12
2022-09-15T00:27:41.696Z,15.12
2022-09-15T00:30:08.611Z,15.04
2022-09-15T00:32:35.333Z,14.95
2022-09-15T00:35:01.774Z,14.79
2022-09-15T00:37:28.156Z,14.74
2022-09-15T00:39:54.586Z,14.77
2022-09-15T00:42:22.641Z,14.64
2022-09-15T00:44:53.684Z,14.63
2022-09-15T00:47:27.061Z,14.55
2022-09-15T00:49:59.467Z,14.60
2022-09-15T00:52:32.178Z,14.44
2022-09-15T00:55:04.597Z,14.37
2022-09-15T00:57:48.774Z,14.29
2022-09-15T01:00:19.365Z,14.30
2022-09-15T01:02:48.225Z,14.28
2022-09-15T01:05:17.622Z,14.16
2022-09-15T01:07:51.649Z,14.18
2022-09-15T01:10:31.301Z,14.09
2022-09-15T01:13:03.512Z,14.04
2022-09-15T01:15:40.311Z,13.94
2022-09-15T01:18:18.295Z,13.95
2022-09-15T01:20:50.348Z,13.95
2022-09-15T01:23:47.853Z,13.97
2022-09-15T01:26:23.447Z,13.94
2022-09-15T01:29:17.566Z,13.93
2022-09-15T01:32:11.192Z,14.06
2022-09-15T01:34:48.743Z,14.09
2022-09-15T01:37:21.037Z,14.22
2022-09-15T01:39:51.505Z,14.16
2022-09-15T01:42:19.502Z,14.30
2022-09-15T01:44:57.681Z,14.43
2022-09-15T01:47:28.245Z,14.40
2022-09-15T01:50:15.308Z,14.37
2022-09-15T01:52:45.417Z,14.39
2022-09-15T01:55:17.977Z,14.53
2022-09-15T01:57:45.483Z,14.73
2022-09-15T02:00:12.375Z,14.74
2022-09-15T02:02:48.739Z,14.84
2022-09-15T02:05:25.182Z,14.91
2022-09-15T02:08:23.001Z,14.91
2022-09-15T02:10:58.717Z,14.97
2022-09-15T02:13:38.051Z,14.95
2022-09-15T02:16:10.631Z,15.20
2022-09-15T02:18:47.186Z,15.04
2022-09-15T02:21:22.094Z,14.95
2022-09-15T02:23:52.974Z,14.67
2022-09-15T02:26:24.753Z,14.44
2022-09-15T02:28:54.079Z,14.44
2022-09-15T02:31:24.992Z,14.19
2022-09-15T02:33:57.859Z,14.08
2022-09-15T02:36:27.419Z,14.09
2022-09-15T02:38:59.441Z,14.08
2022-09-15T02:41:26.995Z,14.05
2022-09-15T02:43:53.391Z,13.94
2022-09-15T02:46:22.207Z,13.91
2022-09-15T02:48:48.770Z,13.85
2022-09-15T02:51:16.918Z,14.00
2022-09-15T02:53:44.614Z,13.87
2022-09-15T02:56:11.054Z,13.71
2022-09-15T02:58:37.576Z,13.67
2022-09-15T03:01:05.740Z,13.60
2022-09-15T03:03:33.428Z,13.58
2022-09-15T03:06:16.449Z,13.70
2022-09-15T03:08:44.455Z,13.63
2022-09-15T03:11:12.077Z,13.58
2022-09-15T03:13:39.363Z,13.53
2022-09-15T03:16:10.842Z,13.34
2022-09-15T03:18:38.458Z,13.34
2022-09-15T03:21:07.550Z,13.33
2022-09-15T03:23:34.173Z,13.33
2022-09-15T03:26:01.555Z,13.27
2022-09-15T03:28:28.655Z,13.20
2022-09-15T03:30:55.632Z,13.15
2022-09-15T03:33:23.374Z,13.11
2022-09-15T03:35:51.146Z,13.02
2022-09-15T03:38:17.960Z,13.03
2022-09-15T03:40:45.049Z,13.05
2022-09-15T03:43:18.055Z,13.03
2022-09-15T03:45:45.134Z,13.02
2022-09-15T03:48:11.680Z,13.15
2022-09-15T03:50:38.234Z,13.06
2022-09-15T03:53:04.675Z,12.98
2022-09-15T03:55:31.315Z,13.07
2022-09-15T03:57:57.808Z,13.02
2022-09-15T04:00:24.275Z,13.05
2022-09-15T04:02:50.890Z,13.05
2022-09-15T04:05:17.512Z,13.06
2022-09-15T04:07:43.965Z,13.03
2022-09-15T04:10:11.131Z,13.02
2022-09-15T04:12:37.752Z,13.11
2022-09-15T04:15:04.579Z,13.07
2022-09-15T04:17:31.205Z,12.96
2022-09-15T04:19:58.082Z,12.98
2022-09-15T04:22:24.619Z,13.15
2022-09-15T04:24:51.203Z,13.27
2022-09-15T04:27:17.610Z,13.22
2022-09-15T04:29:44.061Z,13.26
2022-09-15T04:32:10.567Z,13.37
2022-09-15T04:34:41.231Z,13.67
2022-09-15T04:37:07.984Z,13.73
2022-09-15T04:39:34.418Z,13.67
2022-09-15T04:42:01.147Z,13.95
2022-09-15T04:44:27.528Z,13.81
2022-09-15T04:46:54.401Z,14.16
2022-09-15T04:49:20.897Z,13.98
2022-09-15T04:51:47.375Z,14.15
2022-09-15T04:54:13.852Z,13.98
2022-09-15T04:56:40.296Z,14.08
2022-09-15T04:59:13.289Z,14.12
2022-09-15T05:01:40.234Z,14.15
2022-09-15T05:04:06.662Z,14.09
2022-09-15T05:06:34.913Z,14.15
2022-09-15T05:09:07.657Z,14.19
2022-09-15T05:11:36.374Z,14.16
2022-09-15T05:14:02.934Z,14.22
2022-09-15T05:16:30.154Z,14.26
2022-09-15T05:19:00.059Z,14.18
2022-09-15T05:21:27.473Z,14.39
2022-09-15T05:23:54.213Z,14.51
2022-09-15T05:26:23.779Z,14.46
2022-09-15T05:28:50.300Z,14.60
2022-09-15T05:31:25.168Z,14.51
2022-09-15T05:33:52.998Z,14.93
2022-09-15T05:36:23.653Z,14.79
2022-09-15T05:38:50.040Z,15.00
2022-09-15T05:41:18.181Z,14.74
2022-09-15T05:43:49.204Z,14.90
2022-09-15T05:46:17.964Z,14.76
2022-09-15T05:48:45.722Z,14.91
2022-09-15T05:51:12.812Z,14.94
2022-09-15T05:53:40.129Z,14.83
2022-09-15T05:56:11.867Z,14.97
2022-09-15T05:58:40.666Z,14.85
2022-09-15T06:01:11.261Z,14.91
2022-09-15T06:03:37.746Z,14.97
2022-09-15T06:06:06.178Z,15.14
2022-09-15T06:08:58.087Z,15.22
2022-09-15T06:11:30.632Z,15.11
2022-09-15T06:14:01.571Z,15.18
2022-09-15T06:16:32.056Z,15.11
2022-09-15T06:18:59.022Z,15.03
2022-09-15T06:21:28.940Z,15.01
2022-09-15T06:23:57.831Z,15.04
2022-09-15T06:26:24.954Z,15.20
2022-09-15T06:28:53.850Z,15.04
2022-09-15T06:32:39.071Z,15.01
2022-09-15T06:35:08.715Z,15.25
2022-09-15T06:37:35.245Z,15.22
2022-09-15T06:40:03.085Z,15.18
2022-09-15T06:42:29.638Z,15.24
2022-09-15T06:44:56.277Z,15.21
2022-09-15T06:47:22.747Z,15.38
2022-09-15T06:49:49.235Z,15.56
2022-09-15T06:52:15.697Z,15.59
2022-09-15T06:54:42.135Z,15.72
2022-09-15T06:57:08.565Z,15.86
2022-09-15T06:59:34.983Z,16.09
2022-09-15T07:02:05.051Z,16.09
2022-09-15T07:04:33.492Z,15.99
2022-09-15T07:06:59.911Z,15.72
2022-09-15T07:09:26.493Z,15.34
2022-09-15T07:11:53.245Z,15.70
2022-09-15T07:14:19.645Z,15.73
2022-09-15T07:16:46.165Z,15.82
2022-09-15T07:19:12.847Z,15.96
2022-09-15T07:21:39.271Z,15.96
2022-09-15T07:24:07.411Z,15.67
2022-09-15T07:26:34.470Z,15.73
2022-09-15T07:29:03.700Z,15.87
2022-09-15T07:31:32.604Z,16.06
2022-09-15T07:33:59.943Z,16.25
2022-09-15T07:36:26.787Z,15.96
2022-09-15T07:38:53.475Z,16.11
2022-09-15T07:41:26.067Z,16.45
2022-09-15T07:43:57.767Z,16.72
2022-09-15T07:46:25.786Z,16.79
2022-09-15T07:48:56.193Z,16.72
2022-09-15T07:51:23.325Z,16.27
2022-09-15T07:53:50.194Z,16.25
2022-09-15T07:56:18.437Z,16.00
2022-09-15T07:58:46.297Z,15.83
2022-09-15T08:01:14.753Z,15.87
2022-09-15T08:03:46.354Z,15.90
2022-09-15T08:06:13.628Z,15.87
2022-09-15T08:08:41.197Z,16.21
2022-09-15T08:11:08.689Z,16.51
2022-09-15T08:13:35.969Z,16.67
2022-09-15T08:16:11.351Z,16.40
2022-09-15T08:18:38.891Z,16.85
2022-09-15T08:21:07.194Z,16.95
2022-09-15T08:23:33.827Z,17.00
2022-09-15T08:26:00.558Z,17.33
2022-09-15T08:28:27.537Z,17.33
2022-09-15T08:31:01.514Z,17.43
2022-09-15T08:33:29.078Z,17.34
2022-09-15T08:36:01.337Z,16.90
2022-09-15T08:38:28.101Z,16.85
2022-09-15T08:41:01.810Z,17.20
2022-09-15T08:43:32.729Z,17.65
2022-09-15T08:46:06.072Z,17.64
2022-09-15T08:49:02.596Z,17.43
2022-09-15T08:51:37.217Z,17.48
2022-09-15T08:54:11.050Z,17.58
2022-09-15T08:56:40.099Z,17.67
2022-09-15T08:59:12.167Z,17.23
2022-09-15T09:02:03.951Z,17.37
2022-09-15T09:04:54.673Z,17.44
2022-09-15T09:07:59.763Z,18.19
2022-09-15T09:10:48.406Z,18.44
2022-09-15T09:13:31.982Z,18.61
2022-09-15T09:16:10.373Z,18.50
2022-09-15T09:18:58.740Z,18.23
2022-09-15T09:21:35.343Z,17.71
2022-09-15T09:24:06.324Z,17.78
2022-09-15T09:26:35.880Z,18.53
2022-09-15T09:29:27.895Z,18.64
2022-09-15T09:31:56.472Z,19.11
2022-09-15T09:34:33.481Z,19.04
2022-09-15T09:37:08.309Z,19.35
2022-09-15T09:39:34.866Z,19.91
2022-09-15T09:42:02.854Z,19.90
2022-09-15T09:44:32.230Z,19.78
2022-09-15T09:46:59.856Z,19.83
2022-09-15T09:49:30.878Z,19.77
2022-09-15T09:52:00.014Z,18.56
2022-09-15T09:54:28.701Z,18.71
2022-09-15T09:57:16.741Z,18.06
2022-09-15T09:59:45.213Z,18.01
2022-09-15T10:02:11.578Z,18.20
2022-09-15T10:05:05.761Z,18.54
2022-09-15T10:07:34.679Z,18.95
2022-09-15T10:10:02.014Z,18.94
2022-09-15T10:12:40.554Z,18.97
2022-09-15T10:15:20.369Z,18.99
2022-09-15T10:17:49.803Z,18.78
2022-09-15T10:20:35.651Z,18.85
2022-09-15T10:23:23.069Z,18.74
2022-09-15T10:25:59.029Z,18.13
2022-09-15T10:28:27.550Z,17.99
2022-09-15T10:31:15.783Z,17.81
2022-09-15T10:33:47.736Z,17.92
2022-09-15T10:36:17.392Z,17.94
2022-09-15T10:38:46.750Z,18.17
2022-09-15T10:41:30.673Z,18.58
2022-09-15T10:44:22.954Z,19.15
2022-09-15T10:47:05.689Z,19.02
2022-09-15T10:49:38.103Z,18.36
2022-09-15T10:52:41.749Z,18.88
2022-09-15T10:55:42.544Z,18.25
2022-09-15T10:58:39.016Z,17.88
2022-09-15T11:01:29.523Z,17.77
2022-09-15T11:04:00.133Z,17.98
2022-09-15T11:06:38.983Z,18.26
2022-09-15T11:09:11.415Z,17.99
2022-09-15T11:11:37.814Z,18.27
2022-09-15T11:14:26.056Z,17.96
2022-09-15T11:17:11.324Z,17.94
2022-09-15T11:19:57.625Z,17.95
2022-09-15T11:22:34.268Z,17.96
2022-09-15T11:25:10.703Z,17.92
2022-09-15T11:27:44.940Z,17.62
2022-09-15T11:30:25.467Z,17.64
2022-09-15T11:32:54.294Z,17.71
2022-09-15T11:35:33.230Z,17.55
2022-09-15T11:38:13.764Z,17.46
2022-09-15T11:40:47.829Z,17.89
2022-09-15T11:43:34.487Z,18.39
2022-09-15T11:46:02.899Z,20.13
2022-09-15T11:48:57.576Z,19.70
2022-09-15T11:51:27.001Z,20.14
2022-09-15T11:54:01.713Z,20.26
2022-09-15T11:56:36.482Z,20.17
2022-09-15T11:59:23.363Z,20.39
2022-09-15T12:01:59.299Z,21.23
2022-09-15T12:04:31.916Z,20.55
2022-09-15T12:07:08.729Z,19.18
2022-09-15T12:09:38.613Z,18.84
2022-09-15T12:12:15.410Z,18.73
2022-09-15T12:14:44.860Z,18.63
2022-09-15T12:17:34.118Z,18.60
2022-09-15T12:20:39.221Z,18.89
2022-09-15T12:23:24.395Z,18.50
2022-09-15T12:26:18.440Z,18.50
2022-09-15T12:28:54.075Z,18.89
2022-09-15T12:31:26.281Z,19.62
2022-09-15T12:33:57.580Z,19.29
2022-09-15T12:36:31.498Z,19.50
2022-09-15T12:38:59.760Z,19.28
2022-09-15T12:41:27.323Z,19.50
2022-09-15T12:43:55.991Z,19.20
2022-09-15T12:46:22.722Z,18.87
2022-09-15T12:48:49.994Z,18.74
2022-09-15T12:51:26.181Z,18.75
2022-09-15T12:54:02.822Z,18.89
2022-09-15T12:56:31.728Z,18.63
2022-09-15T12:59:07.086Z,18.50
2022-09-15T13:01:48.882Z,18.34
2022-09-15T13:04:43.533Z,18.46
2022-09-15T13:07:32.574Z,18.22
2022-09-15T13:10:27.873Z,18.36
2022-09-15T13:13:18.353Z,18.50
2022-09-15T13:15:47.366Z,18.63
2022-09-15T13:18:16.068Z,18.33
2022-09-15T13:20:53.931Z,18.36
2022-09-15T13:23:24.997Z,18.50
2022-09-15T13:25:56.592Z,18.48
2022-09-15T13:28:24.610Z,18.44
2022-09-15T13:31:01.521Z,18.30
2022-09-15T13:40:18.332Z,17.98
2022-09-15T13:43:03.346Z,18.04
2022-09-15T13:45:44.305Z,18.09
2022-09-15T13:48:19.691Z,18.37
2022-09-15T13:50:56.244Z,18.26
2022-09-15T13:53:46.820Z,18.48
2022-09-15T13:56:29.015Z,18.40
2022-09-15T13:59:11.561Z,18.12
2022-09-15T14:01:42.172Z,18.06
2022-09-15T14:04:16.876Z,18.08
2022-09-15T14:06:50.084Z,17.98
2022-09-15T14:09:20.673Z,18.08
2022-09-15T14:11:50.295Z,17.91
2022-09-15T14:14:34.757Z,17.95
2022-09-15T14:17:01.677Z,18.10
2022-09-15T14:19:28.094Z,17.94
2022-09-15T14:21:58.349Z,17.91
2022-09-15T14:24:31.571Z,17.77
2022-09-15T14:27:08.760Z,17.61
2022-09-15T14:29:40.244Z,17.30
2022-09-15T14:32:10.753Z,17.38
2022-09-15T14:34:38.355Z,17.53
2022-09-15T14:37:07.750Z,17.41
2022-09-15T14:39:37.311Z,17.50
2022-09-15T14:42:24.041Z,17.43
2022-09-15T14:47:39.517Z,17.53
2022-09-15T14:50:14.176Z,17.38
2022-09-15T14:52:43.335Z,17.33
2022-09-15T14:55:15.912Z,17.36
2022-09-15T14:57:48.885Z,17.26
2022-09-15T15:00:21.078Z,17.34
2022-09-15T15:02:58.295Z,17.43
2022-09-15T15:05:30.362Z,17.53
2022-09-15T15:07:57.746Z,17.55
2022-09-15T15:10:34.882Z,17.48
2022-09-15T15:16:33.694Z,17.38
2022-09-15T15:19:00.512Z,17.62
2022-09-15T15:21:38.040Z,17.71
2022-09-15T15:24:23.358Z,17.44
2022-09-15T15:26:50.637Z,17.40
2022-09-15T15:29:40.625Z,17.34
2022-09-15T15:32:13.408Z,17.34
2022-09-15T15:34:40.053Z,17.40
2022-09-15T15:37:21.340Z,17.29
2022-09-15T15:39:48.201Z,17.13
2022-09-15T15:42:16.145Z,17.11
2022-09-15T15:45:28.263Z,17.07
2022-09-15T15:47:54.940Z,17.06
2022-09-15T15:50:24.769Z,17.07
2022-09-15T15:52:52.486Z,17.02
2022-09-15T15:55:21.866Z,17.09
2022-09-15T15:57:51.032Z,17.00
2022-09-15T16:00:21.536Z,16.96
2022-09-15T16:02:48.906Z,16.96
2022-09-15T16:05:15.925Z,16.98
2022-09-15T16:07:46.812Z,16.96
2022-09-15T16:10:18.944Z,16.89
2022-09-15T16:12:45.338Z,17.07
2022-09-15T16:15:13.636Z,17.02
2022-09-15T16:17:44.423Z,17.03
2022-09-15T16:20:16.015Z,16.96
2022-09-15T16:22:42.793Z,16.99
2022-09-15T16:25:16.494Z,16.96
2022-09-15T16:27:42.908Z,16.99
2022-09-15T16:30:12.017Z,16.96
2022-09-15T16:32:40.049Z,16.95
2022-09-15T16:35:51.017Z,17.02
2022-09-15T16:38:19.724Z,17.06
2022-09-15T16:40:51.112Z,16.88
2022-09-15T16:43:21.381Z,16.92
2022-09-15T16:45:49.206Z,16.89
2022-09-15T16:48:15.730Z,16.82
2022-09-15T16:51:02.179Z,16.80
2022-09-15T16:53:30.978Z,16.88
2022-09-15T16:55:57.522Z,16.86
2022-09-15T16:58:24.121Z,16.86
2022-09-15T17:00:52.585Z,16.82
2022-09-15T17:03:21.709Z,16.78
2022-09-15T17:05:56.402Z,16.72
2022-09-15T17:08:31.359Z,16.71
2022-09-15T17:11:00.555Z,16.80
2022-09-15T17:13:30.474Z,16.80
2022-09-15T17:15:58.546Z,16.88
2022-09-15T17:18:25.789Z,16.79
2022-09-15T17:20:53.094Z,16.72
2022-09-15T17:23:24.890Z,16.71
2022-09-15T17:25:58.397Z,16.68
2022-09-15T17:28:31.412Z,16.65
2022-09-15T17:31:00.364Z,16.64
2022-09-15T17:33:28.362Z,16.64
2022-09-15T17:35:55.337Z,16.52
2022-09-15T17:38:22.376Z,16.54
2022-09-15T17:40:49.907Z,16.48
2022-09-15T17:43:21.385Z,16.45
2022-09-15T17:45:49.343Z,16.38
2022-09-15T17:48:16.492Z,16.35
2022-09-15T17:50:45.275Z,16.32
2022-09-15T17:53:13.905Z,16.32
2022-09-15T17:57:35.931Z,16.31
2022-09-15T18:00:02.705Z,16.30
2022-09-15T18:02:29.158Z,16.31
2022-09-15T18:04:56.389Z,16.27
2022-09-15T18:07:22.981Z,16.30
2022-09-15T18:09:49.342Z,16.27
2022-09-15T18:12:19.832Z,16.20
2022-09-15T18:14:49.215Z,16.14
2022-09-15T18:17:16.503Z,16.03
2022-09-15T18:19:42.945Z,16.09
2022-09-15T18:22:09.613Z,16.06
2022-09-15T18:24:36.009Z,16.09
2022-09-15T18:27:02.385Z,16.14
2022-09-15T18:29:28.780Z,16.14
2022-09-15T18:31:55.871Z,16.14
2022-09-15T18:34:22.312Z,16.11
2022-09-15T18:36:48.735Z,16.13
2022-09-15T18:39:15.222Z,16.17
2022-09-15T18:41:41.651Z,16.28
2022-09-15T18:44:08.074Z,16.31
2022-09-15T18:46:34.632Z,16.35
2022-09-15T18:49:02.700Z,16.40
2022-09-15T18:51:47.876Z,16.47
2022-09-15T18:54:15.712Z,16.28
2022-09-15T18:56:42.330Z,16.32
2022-09-15T18:59:10.408Z,16.22
2022-09-15T19:01:36.884Z,16.25
2022-09-15T19:04:03.393Z,16.31
2022-09-15T19:06:30.980Z,16.28
2022-09-15T19:08:57.489Z,16.27
2022-09-15T19:11:23.941Z,16.24
2022-09-15T19:13:53.395Z,16.24
2022-09-15T19:16:22.772Z,16.16
2022-09-15T19:18:50.134Z,16.07
2022-09-15T19:21:17.243Z,16.01
2022-09-15T19:23:46.311Z,15.96
2022-09-15T19:26:15.709Z,15.93
2022-09-15T19:28:44.592Z,15.93
2022-09-15T19:31:13.791Z,15.85
2022-09-15T19:33:40.354Z,15.83
2022-09-15T19:36:27.300Z,15.83
2022-09-15T19:38:54.672Z,15.79
2022-09-15T19:41:21.357Z,15.79
2022-09-15T19:43:47.830Z,15.77
2022-09-15T19:46:17.310Z,15.72
2022-09-15T19:48:47.876Z,15.72
2022-09-15T19:51:17.737Z,15.63
2022-09-15T19:53:44.865Z,15.66
2022-09-15T19:56:14.682Z,15.61
2022-09-15T19:58:41.346Z,15.62
2022-09-15T20:01:09.421Z,15.61
2022-09-15T20:03:36.411Z,15.59
2022-09-15T20:06:06.531Z,15.59
2022-09-15T20:08:36.775Z,15.61
2022-09-15T20:11:07.002Z,15.58
2022-09-15T20:13:33.665Z,15.63
2022-09-15T20:16:03.650Z,15.62
2022-09-15T20:18:33.638Z,15.67
2022-09-15T20:21:00.588Z,15.70
2022-09-15T20:23:32.931Z,15.66
2022-09-15T20:26:06.250Z,15.61
2022-09-15T20:28:34.017Z,15.67
2022-09-15T20:31:10.559Z,15.59
2022-09-15T20:33:39.534Z,15.55
2022-09-15T20:36:09.978Z,15.46
2022-09-15T20:38:37.816Z,15.46
2022-09-15T20:41:06.224Z,15.39
2022-09-15T20:43:37.717Z,15.32
2022-09-15T20:46:06.708Z,15.36
2022-09-15T20:48:39.266Z,15.22
2022-09-15T20:51:15.765Z,15.20
2022-09-15T20:53:44.618Z,15.10
2022-09-15T20:56:12.687Z,15.04
2022-09-15T20:58:39.623Z,14.98
2022-09-15T21:01:13.519Z,14.97
2022-09-15T21:03:42.332Z,14.91
2022-09-15T21:06:11.540Z,14.85
2022-09-15T21:08:38.118Z,14.88
2022-09-15T21:11:06.857Z,14.83
2022-09-15T21:13:37.077Z,14.77
2022-09-15T21:16:07.745Z,14.80
2022-09-15T21:18:36.326Z,14.74
2022-09-15T21:21:12.072Z,14.67
2022-09-15T21:23:49.602Z,14.73
2022-09-15T21:26:19.176Z,14.64
2022-09-15T21:28:46.207Z,14.70
2022-09-15T21:31:15.105Z,14.66
2022-09-15T21:33:42.184Z,14.62
2022-09-15T21:36:23.164Z,14.64
2022-09-15T21:38:51.414Z,14.70
2022-09-15T21:41:21.460Z,14.63
2022-09-15T21:43:48.835Z,14.66
2022-09-15T21:46:20.073Z,14.55
2022-09-15T21:48:47.560Z,14.53
2022-09-15T21:51:18.757Z,14.44
2022-09-15T21:53:50.231Z,14.43
2022-09-15T21:56:17.018Z,14.32
2022-09-15T21:58:43.914Z,14.30
2022-09-15T22:01:27.984Z,14.11
2022-09-15T22:04:00.116Z,14.14
2022-09-15T22:06:33.132Z,14.05
2022-09-15T22:09:04.972Z,14.09
2022-09-15T22:11:31.997Z,14.11
2022-09-15T22:13:58.690Z,14.04
2022-09-15T22:16:25.948Z,14.09
2022-09-15T22:18:52.960Z,14.16
2022-09-15T22:21:25.276Z,14.14
2022-09-15T22:23:54.856Z,13.97
2022-09-15T22:26:23.802Z,14.05
2022-09-15T22:28:50.220Z,14.04
2022-09-15T22:31:18.876Z,13.94
2022-09-15T22:33:45.798Z,13.84
2022-09-15T22:36:14.580Z,13.74
2022-09-15T22:38:41.149Z,13.77
2022-09-15T22:41:10.112Z,13.71
2022-09-15T22:43:36.710Z,13.71
2022-09-15T22:46:03.670Z,13.71
2022-09-15T22:48:30.253Z,13.80
2022-09-15T22:50:57.098Z,13.83
2022-09-15T22:53:23.648Z,13.88
2022-09-15T22:55:50.694Z,13.90
2022-09-15T22:58:17.240Z,13.88
2022-09-15T23:00:43.801Z,13.88
2022-09-15T23:03:11.020Z,13.85
2022-09-15T23:05:37.713Z,13.75
2022-09-15T23:08:04.188Z,13.84
2022-09-15T23:10:31.462Z,13.78
2022-09-15T23:12:59.442Z,13.80
2022-09-15T23:15:26.226Z,13.73
2022-09-15T23:17:52.752Z,13.68
2022-09-15T23:20:19.301Z,13.47
2022-09-15T23:22:45.708Z,13.51
2022-09-15T23:25:12.080Z,13.53
2022-09-15T23:27:38.653Z,13.57
2022-09-15T23:30:05.492Z,13.56
2022-09-15T23:32:31.965Z,13.64
2022-09-15T23:34:58.498Z,13.65
2022-09-15T23:37:24.870Z,13.64
2022-09-15T23:39:52.253Z,13.57
2022-09-15T23:42:19.128Z,13.58
2022-09-15T23:44:45.768Z,13.58
2022-09-15T23:47:12.142Z,13.58
2022-09-15T23:49:38.588Z,13.56
2022-09-15T23:52:05.003Z,13.48
2022-09-15T23:54:31.435Z,13.44
2022-09-15T23:56:57.994Z,13.40
